createdAt,value
2022-08-26T00:00:32.851Z,9.278292
2022-08-26T00:01:32.830Z,9.278173
2022-08-26T00:02:32.998Z,9.278317
2022-08-26T00:03:32.782Z,9.278411
2022-08-26T00:04:33.813Z,9.278392
2022-08-26T00:05:32.775Z,9.278401
2022-08-26T00:06:32.741Z,9.278384
2022-08-26T00:07:32.743Z,9.278255
2022-08-26T00:08:32.713Z,9.278284
2022-08-26T00:09:32.736Z,9.278287
2022-08-26T00:10:32.704Z,9.278262
2022-08-26T00:11:32.673Z,9.278279
2022-08-26T00:12:37.584Z,9.278352
2022-08-26T00:13:33.636Z,9.278214
2022-08-26T00:14:32.681Z,9.278350
2022-08-26T00:15:32.595Z,9.278404
2022-08-26T00:16:32.710Z,9.278329
2022-08-26T00:17:32.564Z,9.278376
2022-08-26T00:18:38.849Z,9.278367
2022-08-26T00:19:33.577Z,9.278434
2022-08-26T00:20:32.521Z,9.278314
2022-08-26T00:21:32.530Z,9.278351
2022-08-26T00:22:32.490Z,9.278370
2022-08-26T00:23:32.474Z,9.278394
2022-08-26T00:24:32.496Z,9.278330
2022-08-26T00:25:32.449Z,9.278378
2022-08-26T00:26:32.417Z,9.278362
2022-08-26T00:27:32.410Z,9.278218
2022-08-26T00:28:32.380Z,9.278363
2022-08-26T00:29:32.401Z,9.278336
2022-08-26T00:30:33.353Z,9.278403
2022-08-26T00:32:04.783Z,9.278332
2022-08-26T00:32:32.323Z,9.278302
2022-08-26T00:33:32.308Z,9.278277
2022-08-26T00:34:32.313Z,9.278232
2022-08-26T00:35:32.270Z,9.278261
2022-08-26T00:36:32.260Z,9.278266
2022-08-26T00:37:32.244Z,9.278350
2022-08-26T00:38:32.219Z,9.278286
2022-08-26T00:39:32.245Z,9.278072
2022-08-26T00:40:32.244Z,9.278374
2022-08-26T00:41:32.170Z,9.278514
2022-08-26T00:42:32.161Z,9.278426
2022-08-26T00:43:32.137Z,9.278388
2022-08-26T00:44:33.167Z,9.278362
2022-08-26T00:45:32.139Z,9.278261
2022-08-26T00:46:32.091Z,9.278289
2022-08-26T00:47:32.080Z,9.278291
2022-08-26T00:48:32.066Z,9.278286
2022-08-26T00:49:32.114Z,9.278201
2022-08-26T00:50:32.022Z,9.278249
2022-08-26T00:51:32.016Z,9.278352
2022-08-26T00:52:31.993Z,9.278366
2022-08-26T00:53:31.992Z,9.278306
2022-08-26T00:54:31.956Z,9.278322
2022-08-26T00:55:37.737Z,9.278332
2022-08-26T00:56:32.974Z,9.278343
2022-08-26T00:57:31.934Z,9.278167
2022-08-26T00:58:31.895Z,9.278149
2022-08-26T00:59:32.732Z,9.278219
2022-08-26T01:00:31.894Z,9.278228
2022-08-26T01:01:31.939Z,9.278339
2022-08-26T01:02:31.860Z,9.278290
2022-08-26T01:03:31.813Z,9.278375
2022-08-26T01:04:31.810Z,9.278474
2022-08-26T01:05:31.827Z,9.278313
2022-08-26T01:06:31.788Z,9.278401
2022-08-26T01:07:31.744Z,9.278301
2022-08-26T01:08:31.734Z,9.278340
2022-08-26T01:09:31.703Z,9.278369
2022-08-26T01:10:31.735Z,9.278315
2022-08-26T01:11:31.671Z,9.278232
2022-08-26T01:12:31.663Z,9.278358
2022-08-26T01:13:31.641Z,9.278342
2022-08-26T01:14:31.627Z,9.278324
2022-08-26T01:15:32.958Z,9.278377
2022-08-26T01:16:31.701Z,9.278316
2022-08-26T01:17:31.594Z,9.278295
2022-08-26T01:18:31.571Z,9.278317
2022-08-26T01:19:31.557Z,9.278316
2022-08-26T01:20:31.571Z,9.278308
2022-08-26T01:21:31.520Z,9.278254
2022-08-26T01:22:31.510Z,9.278238
2022-08-26T01:23:31.475Z,9.278301
2022-08-26T01:24:31.461Z,9.278342
2022-08-26T01:25:31.496Z,9.278316
2022-08-26T01:26:31.449Z,9.278330
2022-08-26T01:27:32.684Z,9.278355
2022-08-26T01:28:31.409Z,9.278260
2022-08-26T01:29:31.387Z,9.278322
2022-08-26T01:30:31.402Z,9.278363
2022-08-26T01:31:31.412Z,9.278271
2022-08-26T01:32:31.345Z,9.278320
2022-08-26T01:33:31.319Z,9.278358
2022-08-26T01:34:32.305Z,9.278286
2022-08-26T01:35:31.387Z,9.278343
2022-08-26T01:36:31.298Z,9.278292
2022-08-26T01:37:31.258Z,9.278396
2022-08-26T01:38:31.652Z,9.278505
2022-08-26T01:39:31.235Z,9.278444
2022-08-26T01:40:31.278Z,9.278259
2022-08-26T01:41:31.205Z,9.278296
2022-08-26T01:42:31.166Z,9.278346
2022-08-26T01:43:31.158Z,9.278421
2022-08-26T01:44:31.184Z,9.278275
2022-08-26T01:45:31.236Z,9.278284
2022-08-26T01:46:31.118Z,9.278364
2022-08-26T01:47:31.091Z,9.278364
2022-08-26T01:48:31.095Z,9.278333
2022-08-26T01:49:31.994Z,9.278346
2022-08-26T01:50:31.071Z,9.278230
2022-08-26T01:51:31.028Z,9.278296
2022-08-26T01:52:31.026Z,9.278085
2022-08-26T01:53:31.004Z,9.278284
2022-08-26T01:54:30.977Z,9.278304
2022-08-26T01:55:33.478Z,9.278246
2022-08-26T01:56:33.249Z,9.278315
2022-08-26T01:57:31.944Z,9.278439
2022-08-26T01:58:30.939Z,9.278410
2022-08-26T01:59:30.911Z,9.278403
2022-08-26T02:00:30.919Z,9.278339
2022-08-26T02:01:30.875Z,9.278334
2022-08-26T02:02:30.847Z,9.278353
2022-08-26T02:03:30.842Z,9.278335
2022-08-26T02:04:30.869Z,9.278385
2022-08-26T02:05:30.830Z,9.278220
2022-08-26T02:06:30.779Z,9.278320
2022-08-26T02:07:30.789Z,9.278377
2022-08-26T02:08:30.743Z,9.278366
2022-08-26T02:09:30.810Z,9.278306
2022-08-26T02:10:30.739Z,9.278375
2022-08-26T02:11:30.702Z,9.278333
2022-08-26T02:12:30.712Z,9.278301
2022-08-26T02:13:30.658Z,9.278298
2022-08-26T02:14:30.654Z,9.278390
2022-08-26T02:15:30.663Z,9.278366
2022-08-26T02:16:30.670Z,9.278373
2022-08-26T02:17:30.582Z,9.278429
2022-08-26T02:18:30.582Z,9.278408
2022-08-26T02:19:30.559Z,9.278386
2022-08-26T02:20:30.574Z,9.278447
2022-08-26T02:21:30.526Z,9.278253
2022-08-26T02:22:30.506Z,9.278223
2022-08-26T02:23:30.493Z,9.278211
2022-08-26T02:24:30.474Z,9.278246
2022-08-26T02:25:30.485Z,9.278298
2022-08-26T02:26:30.442Z,9.278424
2022-08-26T02:27:32.049Z,9.278388
2022-08-26T02:28:30.410Z,9.278325
2022-08-26T02:29:30.399Z,9.278297
2022-08-26T02:30:30.418Z,9.278206
2022-08-26T02:31:30.421Z,9.278279
2022-08-26T02:32:30.341Z,9.278301
2022-08-26T02:33:30.337Z,9.278294
2022-08-26T02:34:31.116Z,9.278343
2022-08-26T02:35:30.317Z,9.278305
2022-08-26T02:36:30.282Z,9.278301
2022-08-26T02:37:30.252Z,9.278285
2022-08-26T02:38:30.249Z,9.278315
2022-08-26T02:39:30.225Z,9.278320
2022-08-26T02:40:30.271Z,9.278251
2022-08-26T02:41:30.193Z,9.278277
2022-08-26T02:42:30.181Z,9.278286
2022-08-26T02:43:32.869Z,9.278295
2022-08-26T02:44:30.153Z,9.278307
2022-08-26T02:45:30.161Z,9.278318
2022-08-26T02:46:30.250Z,9.278345
2022-08-26T02:47:30.112Z,9.278268
2022-08-26T02:48:30.077Z,9.278326
2022-08-26T02:49:30.076Z,9.278257
2022-08-26T02:50:30.092Z,9.278252
2022-08-26T02:51:30.038Z,9.278324
2022-08-26T02:52:30.001Z,9.278290
2022-08-26T02:53:31.858Z,9.278215
2022-08-26T02:54:29.985Z,9.278314
2022-08-26T02:55:29.994Z,9.278239
2022-08-26T02:56:29.938Z,9.278310
2022-08-26T02:57:29.936Z,9.278333
2022-08-26T02:58:29.905Z,9.278374
2022-08-26T02:59:29.910Z,9.278300
2022-08-26T03:00:29.945Z,9.278496
2022-08-26T03:01:29.956Z,9.278418
2022-08-26T03:02:29.848Z,9.278368
2022-08-26T03:03:29.818Z,9.278420
2022-08-26T03:04:29.826Z,9.278368
2022-08-26T03:05:29.838Z,9.278360
2022-08-26T03:06:29.781Z,9.278395
2022-08-26T03:07:29.761Z,9.278377
2022-08-26T03:08:29.744Z,9.278416
2022-08-26T03:09:29.723Z,9.278329
2022-08-26T03:10:29.744Z,9.278357
2022-08-26T03:11:33.003Z,9.278340
2022-08-26T03:12:30.675Z,9.278273
2022-08-26T03:13:29.685Z,9.278278
2022-08-26T03:14:29.679Z,9.278414
2022-08-26T03:15:29.656Z,9.278323
2022-08-26T03:16:32.471Z,9.278343
2022-08-26T03:17:29.612Z,9.278357
2022-08-26T03:18:29.591Z,9.278268
2022-08-26T03:19:29.582Z,9.278319
2022-08-26T03:20:29.597Z,9.278392
2022-08-26T03:21:29.551Z,9.278364
2022-08-26T03:22:29.517Z,9.278398
2022-08-26T03:23:29.498Z,9.278371
2022-08-26T03:24:29.475Z,9.278364
2022-08-26T03:25:29.486Z,9.278301
2022-08-26T03:26:29.437Z,9.278397
2022-08-26T03:27:29.472Z,9.278425
2022-08-26T03:28:29.423Z,9.278328
2022-08-26T03:29:29.402Z,9.278362
2022-08-26T03:30:29.409Z,9.278422
2022-08-26T03:31:29.450Z,9.278307
2022-08-26T03:32:29.361Z,9.278336
2022-08-26T03:33:29.330Z,9.278403
2022-08-26T03:34:29.375Z,9.278309
2022-08-26T03:35:29.327Z,9.278246
2022-08-26T03:36:29.302Z,9.278226
2022-08-26T03:37:29.254Z,9.278187
2022-08-26T03:38:29.248Z,9.278210
2022-08-26T03:39:31.459Z,9.278182
2022-08-26T03:40:29.306Z,9.278264
2022-08-26T03:41:29.204Z,9.278321
2022-08-26T03:42:29.171Z,9.278474
2022-08-26T03:43:29.173Z,9.278406
2022-08-26T03:44:29.141Z,9.278483
2022-08-26T03:45:29.155Z,9.278450
2022-08-26T03:46:29.169Z,9.278225
2022-08-26T03:47:29.103Z,9.278379
2022-08-26T03:48:29.077Z,9.278317
2022-08-26T03:49:29.095Z,9.278282
2022-08-26T03:50:29.073Z,9.278301
2022-08-26T03:51:29.034Z,9.278295
2022-08-26T03:52:29.006Z,9.278291
2022-08-26T03:53:28.997Z,9.278300
2022-08-26T03:54:28.970Z,9.278309
2022-08-26T03:55:29.001Z,9.278400
2022-08-26T03:56:28.956Z,9.278320
2022-08-26T03:57:28.913Z,9.278359
2022-08-26T03:58:29.906Z,9.278319
2022-08-26T03:59:28.890Z,9.278300
2022-08-26T04:00:28.911Z,9.278289
2022-08-26T04:01:28.891Z,9.278293
2022-08-26T04:02:28.867Z,9.278407
2022-08-26T04:03:28.886Z,9.278427
2022-08-26T04:04:28.814Z,9.278265
2022-08-26T04:05:28.821Z,9.278359
2022-08-26T04:06:28.784Z,9.278263
2022-08-26T04:07:28.773Z,9.278251
2022-08-26T04:08:28.742Z,9.278248
2022-08-26T04:09:28.721Z,9.278329
2022-08-26T04:10:29.537Z,9.278185
2022-08-26T04:11:28.704Z,9.278203
2022-08-26T04:12:28.676Z,9.278306
2022-08-26T04:13:28.668Z,9.278279
2022-08-26T04:14:28.647Z,9.278378
2022-08-26T04:15:28.673Z,9.278334
2022-08-26T04:16:28.648Z,9.278368
2022-08-26T04:17:28.605Z,9.278290
2022-08-26T04:18:33.014Z,9.278408
2022-08-26T04:19:30.568Z,9.278264
2022-08-26T04:20:28.583Z,9.278284
2022-08-26T04:21:28.527Z,9.278333
2022-08-26T04:22:28.532Z,9.278312
2022-08-26T04:23:28.493Z,9.278342
2022-08-26T04:24:28.594Z,9.278256
2022-08-26T04:25:28.495Z,9.278250
2022-08-26T04:26:28.446Z,9.278182
2022-08-26T04:27:28.413Z,9.278225
2022-08-26T04:28:28.406Z,9.278268
2022-08-26T04:29:28.422Z,9.278279
2022-08-26T04:30:28.393Z,9.278310
2022-08-26T04:31:28.415Z,9.278317
2022-08-26T04:32:28.341Z,9.278340
2022-08-26T04:33:33.200Z,9.278306
2022-08-26T04:34:29.320Z,9.278250
2022-08-26T04:35:28.323Z,9.278279
2022-08-26T04:36:28.269Z,9.278295
2022-08-26T04:37:28.245Z,9.278253
2022-08-26T04:38:28.227Z,9.278293
2022-08-26T04:39:28.236Z,9.278286
2022-08-26T04:40:28.268Z,9.278351
2022-08-26T04:41:28.194Z,9.278345
2022-08-26T04:42:28.166Z,9.278336
2022-08-26T04:43:28.162Z,9.278266
2022-08-26T04:44:28.189Z,9.278279
2022-08-26T04:45:28.146Z,9.278231
2022-08-26T04:46:28.146Z,9.278278
2022-08-26T04:47:31.766Z,9.278179
2022-08-26T04:48:29.070Z,9.278228
2022-08-26T04:49:28.050Z,9.278301
2022-08-26T04:50:29.065Z,9.278260
2022-08-26T04:51:28.281Z,9.278296
2022-08-26T04:52:28.044Z,9.278301
2022-08-26T04:53:28.000Z,9.278314
2022-08-26T04:54:27.976Z,9.278251
2022-08-26T04:55:38.220Z,9.278243
2022-08-26T04:56:28.983Z,9.278272
2022-08-26T04:57:27.914Z,9.278285
2022-08-26T04:58:27.896Z,9.278297
2022-08-26T04:59:27.871Z,9.278333
2022-08-26T05:00:27.898Z,9.278238
2022-08-26T05:01:27.871Z,9.278334
2022-08-26T05:02:27.901Z,9.278370
2022-08-26T05:03:30.569Z,9.278282
2022-08-26T05:04:27.860Z,9.278286
2022-08-26T05:05:27.772Z,9.278302
2022-08-26T05:06:27.782Z,9.278335
2022-08-26T05:07:28.747Z,9.278317
2022-08-26T05:08:27.727Z,9.278230
2022-08-26T05:09:27.704Z,9.278145
2022-08-26T05:10:28.712Z,9.278145
2022-08-26T05:11:27.718Z,9.278116
2022-08-26T05:12:27.663Z,9.278158
2022-08-26T05:13:27.707Z,9.278236
2022-08-26T05:14:27.736Z,9.278220
2022-08-26T05:15:27.626Z,9.278349
2022-08-26T05:16:27.739Z,9.278318
2022-08-26T05:17:27.620Z,9.278381
2022-08-26T05:18:27.577Z,9.278415
2022-08-26T05:19:27.955Z,9.278398
2022-08-26T05:20:27.524Z,9.278353
2022-08-26T05:21:27.553Z,9.278334
2022-08-26T05:22:27.516Z,9.278304
2022-08-26T05:23:27.475Z,9.278296
2022-08-26T05:24:27.499Z,9.278231
2022-08-26T05:25:27.523Z,9.278399
2022-08-26T05:26:27.459Z,9.278325
2022-08-26T05:27:27.404Z,9.278446
2022-08-26T05:28:27.435Z,9.278460
2022-08-26T05:29:27.383Z,9.278468
2022-08-26T05:30:27.375Z,9.278336
2022-08-26T05:31:27.426Z,9.278389
2022-08-26T05:32:27.324Z,9.278386
2022-08-26T05:33:27.318Z,9.278318
2022-08-26T05:34:30.245Z,9.278322
2022-08-26T05:35:27.358Z,9.278349
2022-08-26T05:36:27.304Z,9.278400
2022-08-26T05:37:27.256Z,9.278436
2022-08-26T05:38:30.335Z,9.278363
2022-08-26T05:39:27.221Z,9.278257
2022-08-26T05:40:27.283Z,9.278390
2022-08-26T05:41:27.210Z,9.278295
2022-08-26T05:42:28.161Z,9.278311
2022-08-26T05:43:27.197Z,9.278397
2022-08-26T05:44:27.740Z,9.278451
2022-08-26T05:45:27.126Z,9.278387
2022-08-26T05:46:27.327Z,9.278365
2022-08-26T05:47:27.129Z,9.278289
2022-08-26T05:48:27.099Z,9.278293
2022-08-26T05:49:27.090Z,9.278357
2022-08-26T05:50:27.045Z,9.278382
2022-08-26T05:51:27.057Z,9.278366
2022-08-26T05:52:27.001Z,9.278339
2022-08-26T05:53:27.011Z,9.278259
2022-08-26T05:54:27.082Z,9.278313
2022-08-26T05:55:26.992Z,9.278312
2022-08-26T05:56:27.080Z,9.278245
2022-08-26T05:57:26.956Z,9.278305
2022-08-26T05:58:26.903Z,9.278414
2022-08-26T05:59:26.896Z,9.278389
2022-08-26T06:00:26.883Z,9.278374
2022-08-26T06:01:26.948Z,9.278294
2022-08-26T06:02:26.921Z,9.278331
2022-08-26T06:03:26.820Z,9.278296
2022-08-26T06:04:28.319Z,9.278343
2022-08-26T06:05:26.835Z,9.278152
2022-08-26T06:06:27.445Z,9.278235
2022-08-26T06:07:26.755Z,9.278284
2022-08-26T06:08:26.779Z,9.278340
2022-08-26T06:09:26.741Z,9.278337
2022-08-26T06:10:32.471Z,9.278410
2022-08-26T06:11:28.724Z,9.278407
2022-08-26T06:12:26.682Z,9.278449
2022-08-26T06:13:26.692Z,9.278399
2022-08-26T06:14:26.685Z,9.278337
2022-08-26T06:15:26.790Z,9.278362
2022-08-26T06:16:26.704Z,9.278434
2022-08-26T06:17:26.614Z,9.278420
2022-08-26T06:18:26.588Z,9.278323
2022-08-26T06:19:32.962Z,9.278371
2022-08-26T06:20:27.557Z,9.278315
2022-08-26T06:21:26.585Z,9.278239
2022-08-26T06:22:26.537Z,9.278214
2022-08-26T06:23:26.540Z,9.278317
2022-08-26T06:24:27.266Z,9.278323
2022-08-26T06:25:26.504Z,9.278337
2022-08-26T06:26:26.539Z,9.278293
2022-08-26T06:27:30.668Z,9.278320
2022-08-26T06:28:28.434Z,9.278295
2022-08-26T06:29:26.457Z,9.278407
2022-08-26T06:30:26.437Z,9.278350
2022-08-26T06:31:26.446Z,9.278330
2022-08-26T06:32:26.399Z,9.278378
2022-08-26T06:33:26.390Z,9.278329
2022-08-26T06:34:29.667Z,9.278312
2022-08-26T06:35:26.328Z,9.278300
2022-08-26T06:36:26.353Z,9.278275
2022-08-26T06:37:26.300Z,9.278257
2022-08-26T06:38:26.295Z,9.278246
2022-08-26T06:39:26.266Z,9.278211
2022-08-26T06:40:26.405Z,9.278199
2022-08-26T06:41:26.339Z,9.278120
2022-08-26T06:42:26.239Z,9.278167
2022-08-26T06:43:26.208Z,9.278192
2022-08-26T06:44:26.388Z,9.278266
2022-08-26T06:45:26.403Z,9.278248
2022-08-26T06:46:26.261Z,9.278226
2022-08-26T06:47:26.130Z,9.278144
2022-08-26T06:48:26.131Z,9.278285
2022-08-26T06:49:27.353Z,9.278358
2022-08-26T06:50:26.093Z,9.278330
2022-08-26T06:51:26.121Z,9.278318
2022-08-26T06:52:26.084Z,9.278272
2022-08-26T06:53:26.055Z,9.278343
2022-08-26T06:54:26.025Z,9.278251
2022-08-26T06:55:26.877Z,9.278255
2022-08-26T06:56:26.028Z,9.278247
2022-08-26T06:57:25.985Z,9.278332
2022-08-26T06:58:26.924Z,9.278309
2022-08-26T06:59:25.966Z,9.278278
2022-08-26T07:00:25.953Z,9.278287
2022-08-26T07:01:26.028Z,9.278331
2022-08-26T07:02:28.586Z,9.278291
2022-08-26T07:03:26.028Z,9.278287
2022-08-26T07:04:27.798Z,9.278313
2022-08-26T07:05:25.873Z,9.278361
2022-08-26T07:06:25.900Z,9.278157
2022-08-26T07:07:25.838Z,9.278334
2022-08-26T07:08:25.839Z,9.278374
2022-08-26T07:09:25.912Z,9.278429
2022-08-26T07:10:25.829Z,9.278414
2022-08-26T07:11:25.815Z,9.278388
2022-08-26T07:12:25.769Z,9.278324
2022-08-26T07:13:30.497Z,9.278268
2022-08-26T07:14:26.811Z,9.278312
2022-08-26T07:15:27.143Z,9.278344
2022-08-26T07:16:26.843Z,9.278341
2022-08-26T07:17:25.700Z,9.278333
2022-08-26T07:18:25.695Z,9.278320
2022-08-26T07:19:30.641Z,9.278222
2022-08-26T07:20:26.705Z,9.278170
2022-08-26T07:21:25.672Z,9.278207
2022-08-26T07:22:25.628Z,9.278312
2022-08-26T07:23:25.607Z,9.278420
2022-08-26T07:24:28.537Z,9.278428
2022-08-26T07:25:25.631Z,9.278460
2022-08-26T07:26:25.604Z,9.278390
2022-08-26T07:27:25.562Z,9.278271
2022-08-26T07:28:25.532Z,9.278232
2022-08-26T07:29:25.599Z,9.278358
2022-08-26T07:30:25.507Z,9.278329
2022-08-26T07:31:25.541Z,9.278348
2022-08-26T07:32:25.493Z,9.278384
2022-08-26T07:33:25.523Z,9.278419
2022-08-26T07:34:25.471Z,9.278385
2022-08-26T07:35:25.449Z,9.278119
2022-08-26T07:36:25.481Z,9.278152
2022-08-26T07:37:25.447Z,9.278226
2022-08-26T07:38:25.399Z,9.278331
2022-08-26T07:39:25.383Z,9.278320
2022-08-26T07:40:25.384Z,9.278279
2022-08-26T07:41:25.456Z,9.278282
2022-08-26T07:42:25.341Z,9.278178
2022-08-26T07:43:25.317Z,9.278285
2022-08-26T07:44:25.368Z,9.278228
2022-08-26T07:45:25.292Z,9.278304
2022-08-26T07:46:27.466Z,9.278316
2022-08-26T07:47:26.459Z,9.278296
2022-08-26T07:48:25.256Z,9.278284
2022-08-26T07:49:25.330Z,9.278370
2022-08-26T07:50:49.174Z,9.278362
2022-08-26T07:51:26.240Z,9.278436
2022-08-26T07:52:26.942Z,9.278332
2022-08-26T07:53:26.186Z,9.278378
2022-08-26T07:54:27.065Z,9.278459
2022-08-26T07:55:25.226Z,9.278519
2022-08-26T07:56:25.178Z,9.278517
2022-08-26T07:57:25.122Z,9.278426
2022-08-26T07:58:25.196Z,9.278353
2022-08-26T07:59:25.092Z,9.278350
2022-08-26T08:00:25.084Z,9.278364
2022-08-26T08:01:25.174Z,9.278313
2022-08-26T08:02:25.047Z,9.278314
2022-08-26T08:03:25.053Z,9.278282
2022-08-26T08:04:26.610Z,9.278331
2022-08-26T08:05:27.294Z,9.278312
2022-08-26T08:06:27.376Z,9.278238
2022-08-26T08:07:38.619Z,9.278367
2022-08-26T08:08:26.942Z,9.278364
2022-08-26T08:09:25.112Z,9.278421
2022-08-26T08:10:25.191Z,9.278354
2022-08-26T08:11:24.958Z,9.278373
2022-08-26T08:12:24.987Z,9.278337
2022-08-26T08:13:24.961Z,9.278366
2022-08-26T08:14:25.088Z,9.278368
2022-08-26T08:15:24.911Z,9.278320
2022-08-26T08:16:24.941Z,9.278289
2022-08-26T08:17:24.909Z,9.278241
2022-08-26T08:18:24.843Z,9.278338
2022-08-26T08:19:36.564Z,9.278369
2022-08-26T08:20:25.892Z,9.278317
2022-08-26T08:21:24.818Z,9.278068
2022-08-26T08:22:25.845Z,9.278270
2022-08-26T08:23:24.785Z,9.278286
2022-08-26T08:24:24.875Z,9.278171
2022-08-26T08:25:24.759Z,9.278203
2022-08-26T08:26:24.773Z,9.278265
2022-08-26T08:27:24.730Z,9.278261
2022-08-26T08:28:24.756Z,9.278294
2022-08-26T08:29:24.755Z,9.278344
2022-08-26T08:30:24.688Z,9.278333
2022-08-26T08:31:52.143Z,9.278260
2022-08-26T08:32:26.752Z,9.278269
2022-08-26T08:33:24.656Z,9.278213
2022-08-26T08:34:24.678Z,9.278312
2022-08-26T08:35:24.622Z,9.278253
2022-08-26T08:36:24.725Z,9.278396
2022-08-26T08:37:24.668Z,9.278408
2022-08-26T08:38:24.587Z,9.278437
2022-08-26T08:39:24.587Z,9.278390
2022-08-26T08:40:24.605Z,9.278367
2022-08-26T08:41:24.572Z,9.278350
2022-08-26T08:42:24.576Z,9.278378
2022-08-26T08:43:24.526Z,9.278381
2022-08-26T08:45:25.506Z,9.278399
2022-08-26T08:46:24.579Z,9.278411
2022-08-26T08:47:24.544Z,9.278476
2022-08-26T08:48:27.826Z,9.278470
2022-08-26T08:49:24.445Z,9.278366
2022-08-26T08:50:24.430Z,9.278335
2022-08-26T08:51:24.463Z,9.278500
2022-08-26T08:52:24.412Z,9.278405
2022-08-26T08:53:24.437Z,9.278502
2022-08-26T08:54:24.482Z,9.278563
2022-08-26T08:55:24.392Z,9.278566
2022-08-26T08:56:24.404Z,9.278574
2022-08-26T08:57:24.342Z,9.278631
2022-08-26T08:58:24.329Z,9.278615
2022-08-26T08:59:24.325Z,9.278681
2022-08-26T09:00:30.153Z,9.278653
2022-08-26T09:01:25.371Z,9.278715
2022-08-26T09:02:24.312Z,9.278528
2022-08-26T09:03:24.265Z,9.278509
2022-08-26T09:04:24.243Z,9.278360
2022-08-26T09:05:24.220Z,9.278408
2022-08-26T09:06:24.242Z,9.278508
2022-08-26T09:07:24.205Z,9.278456
2022-08-26T09:08:24.191Z,9.278392
2022-08-26T09:09:24.169Z,9.278394
2022-08-26T09:10:24.174Z,9.278583
2022-08-26T09:11:24.237Z,9.278563
2022-08-26T09:12:29.294Z,9.278553
2022-08-26T09:13:26.219Z,9.278581
2022-08-26T09:14:24.134Z,9.278429
2022-08-26T09:15:25.475Z,9.278503
2022-08-26T09:16:25.183Z,9.278442
2022-08-26T09:17:24.069Z,9.278500
2022-08-26T09:18:24.050Z,9.278543
2022-08-26T09:19:24.049Z,9.278592
2022-08-26T09:20:24.020Z,9.278561
2022-08-26T09:21:24.022Z,9.278475
2022-08-26T09:23:25.168Z,9.278478
2022-08-26T09:24:24.024Z,9.278461
2022-08-26T09:25:23.957Z,9.278439
2022-08-26T09:26:26.001Z,9.278446
2022-08-26T09:27:24.964Z,9.278476
2022-08-26T09:28:23.978Z,9.278416
2022-08-26T09:29:24.040Z,9.278380
2022-08-26T09:30:23.996Z,9.278364
2022-08-26T09:31:23.971Z,9.278336
2022-08-26T09:32:23.907Z,9.278246
2022-08-26T09:33:23.856Z,9.278306
2022-08-26T09:34:23.895Z,9.278364
2022-08-26T09:35:23.837Z,9.278340
2022-08-26T09:36:24.736Z,9.278357
2022-08-26T09:37:24.021Z,9.278427
2022-08-26T09:38:23.785Z,9.278442
2022-08-26T09:39:23.776Z,9.278382
2022-08-26T09:40:23.830Z,9.278353
2022-08-26T09:41:23.757Z,9.278374
2022-08-26T09:42:23.807Z,9.278376
2022-08-26T09:43:23.739Z,9.278335
2022-08-26T09:44:24.320Z,9.278315
2022-08-26T09:45:23.713Z,9.278232
2022-08-26T09:46:23.783Z,9.278176
2022-08-26T09:47:23.711Z,9.278272
2022-08-26T09:48:23.692Z,9.278513
2022-08-26T09:49:23.652Z,9.278585
2022-08-26T09:50:23.645Z,9.278301
2022-08-26T09:51:24.646Z,9.278258
2022-08-26T09:52:23.739Z,9.278255
2022-08-26T09:53:25.183Z,9.278392
2022-08-26T09:54:24.625Z,9.278398
2022-08-26T09:55:24.577Z,9.278326
2022-08-26T09:56:23.600Z,9.278369
2022-08-26T09:57:23.560Z,9.278300
2022-08-26T09:58:23.558Z,9.278292
2022-08-26T09:59:23.569Z,9.278216
2022-08-26T10:00:23.517Z,9.278257
2022-08-26T10:01:23.587Z,9.278385
2022-08-26T10:02:23.481Z,9.278347
2022-08-26T10:03:23.475Z,9.278398
2022-08-26T10:04:23.572Z,9.278395
2022-08-26T10:05:23.467Z,9.278346
2022-08-26T10:06:23.492Z,9.278316
2022-08-26T10:07:23.419Z,9.278307
2022-08-26T10:08:23.422Z,9.278308
2022-08-26T10:09:23.405Z,9.278361
2022-08-26T10:10:23.397Z,9.278263
2022-08-26T10:11:23.404Z,9.278240
2022-08-26T10:12:23.490Z,9.278131
2022-08-26T10:13:23.361Z,9.278285
2022-08-26T10:14:23.350Z,9.278272
2022-08-26T10:15:23.320Z,9.278315
2022-08-26T10:16:23.390Z,9.278254
2022-08-26T10:17:23.284Z,9.278266
2022-08-26T10:18:23.293Z,9.278310
2022-08-26T10:19:23.276Z,9.278304
2022-08-26T10:20:24.101Z,9.278300
2022-08-26T10:21:23.337Z,9.278301
2022-08-26T10:22:23.235Z,9.278333
2022-08-26T10:23:23.393Z,9.278284
2022-08-26T10:24:23.241Z,9.278283
2022-08-26T10:25:23.209Z,9.278355
2022-08-26T10:26:23.234Z,9.278276
2022-08-26T10:27:23.169Z,9.278288
2022-08-26T10:28:23.189Z,9.278201
2022-08-26T10:29:23.154Z,9.278268
2022-08-26T10:30:23.153Z,9.278272
2022-08-26T10:31:23.163Z,9.278226
2022-08-26T10:32:23.216Z,9.278337
2022-08-26T10:33:23.101Z,9.278238
2022-08-26T10:34:23.139Z,9.278410
2022-08-26T10:35:23.069Z,9.278387
2022-08-26T10:36:23.094Z,9.278458
2022-08-26T10:37:23.099Z,9.278425
2022-08-26T10:38:23.027Z,9.278333
2022-08-26T10:39:23.025Z,9.278311
2022-08-26T10:40:23.053Z,9.278324
2022-08-26T10:41:23.014Z,9.278432
2022-08-26T10:42:23.050Z,9.278334
2022-08-26T10:43:23.037Z,9.278339
2022-08-26T10:44:22.995Z,9.278260
2022-08-26T10:45:22.943Z,9.278380
2022-08-26T10:46:22.967Z,9.278341
2022-08-26T10:47:22.971Z,9.278343
2022-08-26T10:48:22.939Z,9.278284
2022-08-26T10:49:22.884Z,9.278342
2022-08-26T10:50:22.852Z,9.278316
2022-08-26T10:51:22.843Z,9.278242
2022-08-26T10:52:22.869Z,9.278299
2022-08-26T10:53:24.885Z,9.278336
2022-08-26T10:54:22.887Z,9.278380
2022-08-26T10:55:22.782Z,9.278313
2022-08-26T10:56:22.777Z,9.278307
2022-08-26T10:57:22.793Z,9.278225
2022-08-26T10:58:26.061Z,9.278176
2022-08-26T10:59:22.750Z,9.278244
2022-08-26T11:00:22.727Z,9.278267
2022-08-26T11:01:23.280Z,9.278285
2022-08-26T11:02:25.043Z,9.278157
2022-08-26T11:03:23.667Z,9.278241
2022-08-26T11:04:22.881Z,9.278276
2022-08-26T11:05:22.694Z,9.278294
2022-08-26T11:06:22.636Z,9.278238
2022-08-26T11:07:22.656Z,9.278202
2022-08-26T11:08:22.600Z,9.278166
2022-08-26T11:09:22.582Z,9.278240
2022-08-26T11:10:23.592Z,9.278123
2022-08-26T11:11:22.566Z,9.278232
2022-08-26T11:12:22.569Z,9.278216
2022-08-26T11:13:22.525Z,9.278300
2022-08-26T11:14:28.734Z,9.278229
2022-08-26T11:15:24.618Z,9.278218
2022-08-26T11:16:22.570Z,9.278268
2022-08-26T11:17:22.503Z,9.278212
2022-08-26T11:18:22.463Z,9.278172
2022-08-26T11:19:22.434Z,9.278159
2022-08-26T11:20:22.435Z,9.278226
2022-08-26T11:21:22.407Z,9.278321
2022-08-26T11:22:23.441Z,9.278269
2022-08-26T11:23:22.425Z,9.278263
2022-08-26T11:24:22.401Z,9.278267
2022-08-26T11:25:25.391Z,9.278262
2022-08-26T11:26:35.751Z,9.278269
2022-08-26T11:27:23.404Z,9.278272
2022-08-26T11:28:22.293Z,9.278242
2022-08-26T11:29:22.310Z,9.278320
2022-08-26T11:30:22.304Z,9.278338
2022-08-26T11:31:22.266Z,9.278300
2022-08-26T11:32:22.266Z,9.278311
2022-08-26T11:33:22.215Z,9.278306
2022-08-26T11:34:22.226Z,9.278356
2022-08-26T11:35:22.179Z,9.278310
2022-08-26T11:36:22.189Z,9.278335
2022-08-26T11:37:22.182Z,9.278306
2022-08-26T11:38:22.147Z,9.278269
2022-08-26T11:39:22.143Z,9.278255
2022-08-26T11:40:22.129Z,9.278235
2022-08-26T11:41:22.083Z,9.278316
2022-08-26T11:42:22.120Z,9.278270
2022-08-26T11:43:22.053Z,9.278276
2022-08-26T11:44:22.058Z,9.278260
2022-08-26T11:45:22.053Z,9.278322
2022-08-26T11:46:22.008Z,9.278235